Hovedside
METAR-TAF:

METAR-TAF

Lufthavner :

Jekaterinburg, Russland

breddegrad: 56-50N, lengdegrad: 060-38E, høyde over havet: 237 m

Gjeldene værobservasjon

Denne rapporten ble laget for 29 minutter siden, klokken 17:00 UTC
Vind 4 kt fra Nord, skiftende mellom Nord og Nordøst
Temperatur 19°C
Luftfuktighet 73%
Trykk 1018 hPa
Sikt 10 km eller mer
ingen skyer under 1500 m og ingen bygeskyer

METAR: USSS 231700Z 01002MPS 350V050 CAVOK 19/14 Q1018 R26L/010060 R26R/010060 NOSIG RMK QFE743/0991

Tid: 22:29 (17:29 UTC)

Varsel

Denne rapporten ble laget for 3 timer og 36 minutter siden, klokken 13:53 UTC
Varsel gyldig fra 23. klokken 15 UTC til 24. klokken 15 UTC
Vind 6 kt fra Nord med vindkast opp mot 16 kt
Sikt 10 km eller mer
ingen skyer under 1500 m og ingen bygeskyer

TAF: USSS 231353Z 2315/2415 36003G08MPS CAVOK

Værobservasjoner og værvarsel for over 4000 flyplasser (METAR- og TAF-rapporter).

Tilgjengelige stasjoner er representert av de røde og gule prikkene på kartet.

Hold musepekeren over prikken for å se navnet på stasjonen.

Klikk så for å se værobservasjoner og -varsler.

For å forandre kartet kan du klikke på den grønne knappen med svart kryss for å zoome inn, på den grønne knappen med strek for å zoome ut, eller på de grønne pilene for å se tilstøtende kart.


METAR-TAF: